Time;durP1;ratioP1;P1;durP2;ratioP2;P2;SDS_P1;SDS_P2;PMS_P1;PMS_P2;Temp;Humidity;BMP_temperature;BMP_pressure;BME280_temperature;BME280_humidity;BME280_pressure;Samples;Min_cycle;Max_cycle;Signal;HPM_P1;HPM_P2
2021/03/18 05:32:00;;;;;;;5.55;1.55;;;;;;;;;;6184253;22;883540;-75
2021/03/18 05:34:25;;;;;;;6.45;1.67;;;;;;;;;;6251824;23;20016;-75
2021/03/18 05:36:51;;;;;;;2.85;1.27;;;;;;;;;;6251428;23;20102;-75
2021/03/18 05:39:17;;;;;;;3.40;1.60;;;;;;;;;;6252630;23;20012;-75
2021/03/18 05:41:44;;;;;;;3.25;1.60;;;;;;;;;;6253397;23;20471;-75
2021/03/18 05:44:09;;;;;;;5.00;1.85;;;;;;;;;;6251554;22;20006;-74
2021/03/18 05:46:35;;;;;;;4.60;1.73;;;;;;;;;;6252161;23;20004;-75
2021/03/18 05:49:02;;;;;;;4.82;1.90;;;;;;;;;;6251934;22;20049;-76
2021/03/18 05:51:28;;;;;;;4.82;1.67;;;;;;;;;;6251526;22;20004;-76
2021/03/18 05:53:54;;;;;;;3.17;1.67;;;;;;;;;;6250865;23;20641;-75
2021/03/18 05:56:21;;;;;;;4.15;1.85;;;;;;;;;;6249666;23;20031;-75
2021/03/18 05:58:48;;;;;;;3.17;1.30;;;;;;;;;;6251464;22;20035;-75
2021/03/18 06:01:14;;;;;;;5.35;1.70;;;;;;;;;;6251182;22;20426;-75
2021/03/18 06:03:39;;;;;;;3.63;1.60;;;;;;;;;;6250355;23;20035;-75
2021/03/18 06:06:07;;;;;;;5.75;1.90;;;;;;;;;;6250595;23;20062;-75
2021/03/18 06:08:37;;;;;;;4.57;1.90;;;;;;;;;;6251174;22;20000;-76
2021/03/18 06:11:04;;;;;;;4.53;1.55;;;;;;;;;;6250898;22;20323;-76
2021/03/18 06:13:30;;;;;;;4.90;1.73;;;;;;;;;;6247950;23;20000;-75
2021/03/18 06:15:56;;;;;;;4.78;1.60;;;;;;;;;;6250840;22;20042;-75
2021/03/18 06:18:22;;;;;;;2.97;1.42;;;;;;;;;;6250602;22;20008;-75
2021/03/18 06:20:49;;;;;;;3.38;1.42;;;;;;;;;;6250566;22;20007;-75
2021/03/18 06:23:14;;;;;;;3.42;1.50;;;;;;;;;;6249163;23;20362;-76
2021/03/18 06:25:40;;;;;;;3.90;1.50;;;;;;;;;;6248757;23;20000;-75
2021/03/18 06:28:23;;;;;;;4.70;1.63;;;;;;;;;;6249183;23;20035;-77
2021/03/18 06:31:07;;;;;;;3.97;1.85;;;;;;;;;;6249896;22;20008;-76
2021/03/18 06:33:34;;;;;;;8.30;2.10;;;;;;;;;;6243151;23;20004;-75
2021/03/18 06:36:01;;;;;;;3.80;1.85;;;;;;;;;;6243947;22;20319;-75
2021/03/18 06:38:28;;;;;;;8.48;2.42;;;;;;;;;;6244048;23;20007;-75
2021/03/18 06:40:53;;;;;;;11.82;3.65;;;;;;;;;;6243846;22;20014;-75
2021/03/18 06:43:33;;;;;;;4.15;1.85;;;;;;;;;;6243340;22;20003;-76
2021/03/18 06:46:12;;;;;;;3.42;1.70;;;;;;;;;;6243832;22;20004;-75
2021/03/18 06:48:38;;;;;;;13.95;8.98;;;;;;;;;;6243524;22;20021;-77
2021/03/18 06:51:15;;;;;;;4.80;2.80;;;;;;;;;;6246371;22;20060;-78
2021/03/18 06:55:59;;;;;;;6.22;2.90;;;;;;;;;;5075923;28;20437;-77
2021/03/18 06:58:26;;;;;;;5.07;2.72;;;;;;;;;;5074444;28;20093;-77
2021/03/18 07:00:53;;;;;;;4.38;1.80;;;;;;;;;;5070328;28;20035;-77
2021/03/18 07:03:31;;;;;;;5.30;2.60;;;;;;;;;;5055465;28;20021;-77
2021/03/18 07:05:57;;;;;;;6.15;2.55;;;;;;;;;;5051885;28;20021;-77
2021/03/18 07:08:25;;;;;;;6.35;2.30;;;;;;;;;;5061527;28;20015;-77
2021/03/18 07:10:50;;;;;;;6.68;2.83;;;;;;;;;;5055265;28;20079;-77
2021/03/18 07:13:17;;;;;;;5.30;2.65;;;;;;;;;;5061600;28;20048;-78
2021/03/18 07:15:43;;;;;;;7.13;2.42;;;;;;;;;;5060904;28;20032;-76
2021/03/18 07:18:10;;;;;;;8.63;2.92;;;;;;;;;;5060180;28;20021;-77
2021/03/18 07:20:36;;;;;;;7.75;3.17;;;;;;;;;;5061564;28;20480;-77
2021/03/18 07:23:09;;;;;;;5.32;2.67;;;;;;;;;;5060901;28;20028;-77
2021/03/18 07:25:45;;;;;;;4.55;2.00;;;;;;;;;;5066951;28;20039;-78
2021/03/18 07:28:16;;;;;;;5.07;2.15;;;;;;;;;;5053730;28;20083;-77
2021/03/18 07:30:42;;;;;;;4.70;2.15;;;;;;;;;;5059763;28;20432;-78
2021/03/18 07:33:09;;;;;;;5.72;2.35;;;;;;;;;;5061236;28;20029;-77
2021/03/18 07:35:40;;;;;;;5.97;2.40;;;;;;;;;;5102211;28;20031;-78
2021/03/18 07:38:06;;;;;;;4.88;2.30;;;;;;;;;;5053747;28;20064;-77
2021/03/18 07:40:32;;;;;;;4.13;1.70;;;;;;;;;;5075175;28;20029;-77
2021/03/18 07:43:00;;;;;;;5.32;2.55;;;;;;;;;;5065648;28;20485;-78
2021/03/18 07:45:28;;;;;;;3.90;1.95;;;;;;;;;;5063572;28;20131;-77
2021/03/18 07:50:18;;;;;;;7.72;3.45;;;;;;;;;;5125288;27;20371;-77
2021/03/18 07:52:45;;;;;;;7.80;2.78;;;;;;;;;;5112801;28;20051;-77
2021/03/18 07:55:12;;;;;;;4.65;2.60;;;;;;;;;;5100496;28;20152;-78
2021/03/18 07:57:49;;;;;;;5.78;3.65;;;;;;;;;;5083921;28;20032;-78
2021/03/18 08:00:20;;;;;;;7.40;3.50;;;;;;;;;;5103433;28;20096;-77
2021/03/18 08:02:45;;;;;;;6.20;3.40;;;;;;;;;;5106759;28;20040;-77
2021/03/18 08:05:11;;;;;;;5.70;2.80;;;;;;;;;;5108977;28;20026;-77
2021/03/18 08:07:42;;;;;;;6.03;3.08;;;;;;;;;;5106291;28;20078;-77
2021/03/18 08:12:40;;;;;;;9.63;4.07;;;;;;;;;;5121945;27;20343;-77
2021/03/18 08:15:25;;;;;;;6.93;3.38;;;;;;;;;;5120592;28;20526;-78
2021/03/18 08:17:55;;;;;;;9.50;4.18;;;;;;;;;;5116019;28;20536;-78
2021/03/18 08:20:40;;;;;;;9.02;4.35;;;;;;;;;;5113540;28;20054;-77
2021/03/18 08:23:25;;;;;;;8.90;3.40;;;;;;;;;;5120026;27;20040;-77
2021/03/18 08:26:08;;;;;;;10.43;3.42;;;;;;;;;;5126079;27;20757;-78
2021/03/18 08:28:50;;;;;;;6.43;2.97;;;;;;;;;;5120922;28;20111;-77
2021/03/18 08:31:18;;;;;;;7.28;2.95;;;;;;;;;;5121997;27;20034;-78
2021/03/18 08:36:18;;;;;;;7.57;3.22;;;;;;;;;;5101256;28;20344;-78
2021/03/18 08:38:44;;;;;;;7.22;2.80;;;;;;;;;;5084811;28;20392;-78
2021/03/18 08:41:10;;;;;;;5.65;2.42;;;;;;;;;;5090932;28;20091;-77
2021/03/18 08:43:54;;;;;;;8.77;3.55;;;;;;;;;;5098242;28;20025;-78
2021/03/18 08:46:38;;;;;;;8.85;2.72;;;;;;;;;;5093864;28;20469;-78
2021/03/18 08:49:17;;;;;;;5.43;3.00;;;;;;;;;;5104550;28;20043;-77
2021/03/18 08:51:43;;;;;;;6.30;3.08;;;;;;;;;;5104676;28;20035;-79
2021/03/18 08:54:09;;;;;;;8.68;3.20;;;;;;;;;;5066491;28;20532;-78
2021/03/18 08:56:44;;;;;;;5.20;2.30;;;;;;;;;;5101942;28;20224;-78
2021/03/18 08:59:13;;;;;;;6.40;2.35;;;;;;;;;;5080728;28;20508;-77
2021/03/18 09:01:38;;;;;;;7.13;3.13;;;;;;;;;;5105553;28;20023;-77
2021/03/18 09:04:04;;;;;;;8.45;2.90;;;;;;;;;;5085577;28;20364;-78
2021/03/18 09:06:31;;;;;;;5.70;2.30;;;;;;;;;;5105214;28;20020;-77
2021/03/18 09:08:58;;;;;;;9.13;2.50;;;;;;;;;;5104656;28;20023;-79
2021/03/18 09:11:24;;;;;;;6.85;2.25;;;;;;;;;;5078745;28;20026;-78
2021/03/18 09:13:50;;;;;;;5.22;2.80;;;;;;;;;;5101914;28;20015;-77
2021/03/18 09:16:20;;;;;;;9.27;3.53;;;;;;;;;;5099232;28;20081;-78
2021/03/18 09:18:46;;;;;;;7.63;2.55;;;;;;;;;;5083695;28;20049;-78
2021/03/18 09:21:12;;;;;;;7.78;2.58;;;;;;;;;;5101966;28;20103;-78
2021/03/18 09:23:39;;;;;;;6.13;2.83;;;;;;;;;;5100260;28;20506;-77
2021/03/18 09:26:07;;;;;;;7.05;2.47;;;;;;;;;;5098970;28;20032;-78
2021/03/18 09:30:52;;;;;;;7.05;2.78;;;;;;;;;;5120187;27;20351;-78
2021/03/18 09:33:21;;;;;;;4.50;2.55;;;;;;;;;;5105356;28;20050;-78
2021/03/18 09:35:51;;;;;;;7.20;2.40;;;;;;;;;;5107971;28;20077;-78
2021/03/18 09:38:22;;;;;;;6.38;2.65;;;;;;;;;;5102742;28;20035;-79
2021/03/18 09:40:49;;;;;;;7.63;3.58;;;;;;;;;;5107760;28;20077;-77
2021/03/18 09:43:15;;;;;;;9.63;2.78;;;;;;;;;;5101371;28;20028;-79
2021/03/18 09:45:48;;;;;;;8.27;2.70;;;;;;;;;;5107973;28;20122;-79
2021/03/18 09:48:21;;;;;;;8.95;4.57;;;;;;;;;;5107943;28;20038;-78
2021/03/18 09:50:50;;;;;;;5.82;2.75;;;;;;;;;;5097258;28;20040;-79
2021/03/18 09:55:34;;;;;;;6.13;2.95;;;;;;;;;;5115985;27;20364;-77
2021/03/18 09:58:07;;;;;;;8.52;2.70;;;;;;;;;;5123168;28;20078;-78
2021/03/18 10:00:33;;;;;;;5.15;1.92;;;;;;;;;;5117772;28;20062;-79
2021/03/18 10:03:00;;;;;;;6.78;2.25;;;;;;;;;;5126274;28;20119;-78
2021/03/18 10:05:27;;;;;;;6.10;2.53;;;;;;;;;;5112228;28;20047;-78
2021/03/18 10:07:57;;;;;;;7.13;2.60;;;;;;;;;;5119794;28;20040;-79
2021/03/18 10:10:24;;;;;;;9.02;2.63;;;;;;;;;;5111856;28;20076;-79
2021/03/18 10:12:54;;;;;;;5.43;2.38;;;;;;;;;;5126314;28;20039;-78
2021/03/18 10:15:25;;;;;;;4.32;2.30;;;;;;;;;;5115498;28;20042;-77
2021/03/18 10:17:53;;;;;;;8.88;3.03;;;;;;;;;;5115446;28;20027;-78
2021/03/18 10:20:20;;;;;;;4.85;2.47;;;;;;;;;;5118107;28;20028;-77
2021/03/18 10:22:50;;;;;;;6.45;2.67;;;;;;;;;;5126869;28;20019;-78
2021/03/18 10:25:20;;;;;;;5.97;2.80;;;;;;;;;;5122165;28;20187;-79
2021/03/18 10:27:46;;;;;;;6.38;2.25;;;;;;;;;;5116831;28;20028;-78
2021/03/18 10:30:12;;;;;;;3.97;1.98;;;;;;;;;;5122364;28;20078;-78
2021/03/18 10:32:38;;;;;;;7.15;2.10;;;;;;;;;;5120359;28;20031;-79
2021/03/18 10:35:04;;;;;;;4.75;2.13;;;;;;;;;;5114297;27;20013;-78
2021/03/18 10:37:32;;;;;;;4.22;2.00;;;;;;;;;;5126100;27;20027;-79
2021/03/18 10:40:11;;;;;;;5.30;2.17;;;;;;;;;;5126300;27;20088;-78
2021/03/18 10:42:38;;;;;;;3.72;2.15;;;;;;;;;;5125599;27;20024;-78
2021/03/18 10:45:17;;;;;;;5.55;2.08;;;;;;;;;;5124965;27;20433;-77
2021/03/18 10:47:43;;;;;;;5.03;2.20;;;;;;;;;;5126226;27;20080;-78
2021/03/18 10:50:11;;;;;;;6.25;2.30;;;;;;;;;;5124297;28;20081;-79
2021/03/18 10:52:37;;;;;;;3.20;1.65;;;;;;;;;;5124505;28;20054;-78
2021/03/18 10:55:03;;;;;;;4.82;2.17;;;;;;;;;;5124482;27;20016;-78
2021/03/18 10:57:28;;;;;;;5.32;1.95;;;;;;;;;;5114042;27;20101;-78
2021/03/18 10:59:58;;;;;;;3.78;1.63;;;;;;;;;;5119006;28;20411;-78
2021/03/18 11:02:25;;;;;;;7.38;1.60;;;;;;;;;;5117899;27;20027;-77
2021/03/18 11:04:54;;;;;;;5.45;1.67;;;;;;;;;;5104158;28;20528;-77
2021/03/18 11:07:20;;;;;;;2.35;1.30;;;;;;;;;;5093906;28;21012;-78
2021/03/18 11:10:04;;;;;;;3.85;1.38;;;;;;;;;;5087527;28;20084;-78
2021/03/18 11:14:56;;;;;;;4.55;1.67;;;;;;;;;;5109561;27;20470;-78
2021/03/18 11:17:26;;;;;;;2.90;1.33;;;;;;;;;;5114358;28;20028;-78
2021/03/18 11:20:13;;;;;;;3.05;1.48;;;;;;;;;;5106359;28;20020;-78
2021/03/18 11:22:40;;;;;;;7.57;2.20;;;;;;;;;;5104464;28;20083;-78
2021/03/18 11:25:07;;;;;;;5.82;1.45;;;;;;;;;;5107955;28;20546;-78
2021/03/18 11:27:33;;;;;;;7.90;1.52;;;;;;;;;;5104400;28;20034;-77
2021/03/18 11:29:59;;;;;;;6.95;1.23;;;;;;;;;;5102677;28;20038;-77
2021/03/18 11:32:26;;;;;;;3.58;1.52;;;;;;;;;;5106619;28;20034;-77
2021/03/18 11:34:59;;;;;;;4.20;1.33;;;;;;;;;;5099868;28;20031;-78
2021/03/18 11:37:24;;;;;;;3.25;1.23;;;;;;;;;;5105632;28;20039;-77
2021/03/18 11:39:50;;;;;;;3.45;1.45;;;;;;;;;;5097921;28;20021;-78
2021/03/18 11:42:16;;;;;;;5.75;1.30;;;;;;;;;;5112364;28;20485;-77
2021/03/18 11:44:42;;;;;;;2.90;1.05;;;;;;;;;;5105254;28;20032;-78
2021/03/18 11:47:09;;;;;;;2.50;1.20;;;;;;;;;;5100876;28;20069;-78
2021/03/18 11:49:35;;;;;;;4.00;1.55;;;;;;;;;;5098569;28;20028;-78
2021/03/18 11:52:01;;;;;;;2.40;1.27;;;;;;;;;;5103939;28;20051;-78
2021/03/18 11:54:27;;;;;;;4.47;1.35;;;;;;;;;;5103379;27;20064;-78
2021/03/18 11:56:53;;;;;;;3.97;1.50;;;;;;;;;;5095265;28;20380;-77
2021/03/18 11:59:18;;;;;;;3.58;1.50;;;;;;;;;;5107828;28;20038;-77
2021/03/18 12:01:45;;;;;;;6.85;2.72;;;;;;;;;;5097201;28;20120;-77
2021/03/18 12:04:10;;;;;;;4.03;1.73;;;;;;;;;;5100505;28;20039;-77
2021/03/18 12:06:36;;;;;;;3.67;1.45;;;;;;;;;;5102608;28;20059;-77
2021/03/18 12:11:21;;;;;;;4.28;1.30;;;;;;;;;;5103488;27;21083;-77
2021/03/18 12:13:47;;;;;;;5.88;1.85;;;;;;;;;;5091519;28;20031;-77
2021/03/18 12:16:12;;;;;;;8.85;1.30;;;;;;;;;;5088592;28;20028;-78
2021/03/18 12:18:38;;;;;;;3.30;1.58;;;;;;;;;;5090735;28;20024;-78
2021/03/18 12:21:04;;;;;;;3.10;1.50;;;;;;;;;;5089144;28;20036;-77
2021/03/18 12:23:30;;;;;;;3.05;1.50;;;;;;;;;;5089044;28;20032;-78
2021/03/18 12:25:55;;;;;;;3.50;1.58;;;;;;;;;;5090503;28;20565;-77
2021/03/18 12:28:21;;;;;;;3.88;1.67;;;;;;;;;;5090427;28;20028;-78
2021/03/18 12:30:48;;;;;;;3.42;1.45;;;;;;;;;;5089106;28;20038;-78
2021/03/18 12:33:14;;;;;;;2.58;1.25;;;;;;;;;;5092283;28;20093;-78
2021/03/18 12:35:40;;;;;;;15.02;7.90;;;;;;;;;;5083299;28;20016;-78
2021/03/18 12:38:06;;;;;;;8.27;4.85;;;;;;;;;;5087873;28;20021;-77
2021/03/18 12:40:32;;;;;;;3.95;1.83;;;;;;;;;;5092038;28;20028;-77
2021/03/18 12:42:58;;;;;;;4.90;2.00;;;;;;;;;;5086768;28;20032;-78
2021/03/18 12:45:24;;;;;;;4.28;2.10;;;;;;;;;;5088177;28;20032;-77
2021/03/18 12:50:10;;;;;;;4.97;1.90;;;;;;;;;;5084376;27;20389;-78
2021/03/18 12:52:36;;;;;;;5.97;2.97;;;;;;;;;;5049846;28;20484;-78
2021/03/18 12:55:02;;;;;;;4.30;1.85;;;;;;;;;;5065223;28;20024;-76
2021/03/18 12:57:27;;;;;;;3.83;1.73;;;;;;;;;;5070248;28;20020;-77
2021/03/18 12:59:53;;;;;;;4.05;1.55;;;;;;;;;;5068093;28;20111;-77
2021/03/18 13:02:18;;;;;;;4.10;1.35;;;;;;;;;;5069935;28;20125;-79
2021/03/18 13:04:44;;;;;;;2.83;1.35;;;;;;;;;;5064758;28;20024;-78
2021/03/18 13:07:10;;;;;;;4.43;1.13;;;;;;;;;;5072423;28;20021;-77
2021/03/18 13:11:54;;;;;;;2.30;1.05;;;;;;;;;;5103432;27;20456;-78
2021/03/18 13:14:20;;;;;;;4.70;1.42;;;;;;;;;;5079289;28;20403;-77
2021/03/18 13:16:47;;;;;;;2.67;1.30;;;;;;;;;;5073611;28;20032;-78
2021/03/18 13:19:13;;;;;;;3.00;1.50;;;;;;;;;;5090164;28;20459;-79
2021/03/18 13:21:39;;;;;;;3.58;1.70;;;;;;;;;;5086134;28;20021;-80
2021/03/18 13:24:05;;;;;;;3.20;1.38;;;;;;;;;;5077010;28;20079;-78
2021/03/18 13:26:31;;;;;;;2.67;1.27;;;;;;;;;;5071203;28;20565;-77
2021/03/18 13:28:57;;;;;;;3.42;1.52;;;;;;;;;;5074092;28;20075;-77
2021/03/18 13:31:22;;;;;;;3.65;1.52;;;;;;;;;;5074798;28;20050;-77
2021/03/18 13:33:48;;;;;;;5.78;2.00;;;;;;;;;;5068431;28;20039;-77
2021/03/18 13:36:15;;;;;;;6.38;1.83;;;;;;;;;;5067956;28;20074;-77
2021/03/18 13:38:40;;;;;;;6.95;1.85;;;;;;;;;;5076270;28;20050;-81
2021/03/18 13:41:06;;;;;;;5.00;1.67;;;;;;;;;;5078807;28;20021;-77
2021/03/18 13:43:32;;;;;;;3.85;1.65;;;;;;;;;;5073793;28;20460;-77
2021/03/18 13:45:57;;;;;;;4.10;1.40;;;;;;;;;;5071713;28;20111;-77
2021/03/18 13:48:23;;;;;;;2.95;1.27;;;;;;;;;;5075212;28;20021;-77
2021/03/18 13:50:54;;;;;;;3.53;1.35;;;;;;;;;;5068909;28;20066;-77
2021/03/18 13:53:20;;;;;;;3.08;1.48;;;;;;;;;;5074328;28;20067;-77
2021/03/18 13:55:45;;;;;;;8.73;1.58;;;;;;;;;;5077443;28;20029;-77
2021/03/18 13:58:11;;;;;;;3.63;1.95;;;;;;;;;;5081889;28;20025;-79
2021/03/18 14:00:37;;;;;;;4.70;2.35;;;;;;;;;;5083635;28;20077;-79
2021/03/18 14:03:04;;;;;;;6.25;2.15;;;;;;;;;;5092702;28;20028;-80
2021/03/18 14:05:30;;;;;;;7.65;2.22;;;;;;;;;;5084103;28;20451;-79
2021/03/18 14:07:56;;;;;;;3.72;1.48;;;;;;;;;;5084307;28;20028;-79
2021/03/18 14:10:23;;;;;;;6.25;2.08;;;;;;;;;;5084952;28;20026;-78
2021/03/18 14:12:49;;;;;;;2.40;1.20;;;;;;;;;;5083323;28;20128;-79
2021/03/18 14:15:16;;;;;;;2.92;1.33;;;;;;;;;;5094424;28;20056;-79
2021/03/18 14:17:42;;;;;;;5.15;1.50;;;;;;;;;;5093941;28;20025;-79
2021/03/18 14:20:10;;;;;;;4.80;1.80;;;;;;;;;;5079416;28;20016;-79
2021/03/18 14:22:36;;;;;;;2.88;1.20;;;;;;;;;;5079532;28;20146;-79
2021/03/18 14:25:02;;;;;;;3.75;1.40;;;;;;;;;;5074180;28;20028;-79
2021/03/18 14:27:27;;;;;;;3.90;1.88;;;;;;;;;;5067941;28;20033;-79
2021/03/18 14:29:53;;;;;;;5.03;1.63;;;;;;;;;;5074680;28;20119;-79
2021/03/18 14:32:19;;;;;;;3.58;1.92;;;;;;;;;;5069397;28;20067;-79
2021/03/18 14:34:45;;;;;;;5.82;2.45;;;;;;;;;;5075194;28;20100;-77
2021/03/18 14:37:10;;;;;;;4.57;2.13;;;;;;;;;;5074681;28;20028;-78
2021/03/18 14:39:37;;;;;;;5.70;1.90;;;;;;;;;;5081784;28;20091;-78
2021/03/18 14:42:03;;;;;;;5.65;1.90;;;;;;;;;;5075027;28;20027;-78
2021/03/18 14:44:28;;;;;;;4.82;2.60;;;;;;;;;;5074666;28;20021;-77
2021/03/18 14:46:54;;;;;;;3.47;1.65;;;;;;;;;;5070807;28;20033;-78
2021/03/18 14:49:20;;;;;;;5.07;2.10;;;;;;;;;;5075363;28;20380;-78
2021/03/18 14:51:46;;;;;;;5.03;1.60;;;;;;;;;;5074532;28;20025;-78
2021/03/18 14:54:11;;;;;;;4.63;1.95;;;;;;;;;;5070115;28;20469;-77
2021/03/18 14:56:37;;;;;;;6.03;2.65;;;;;;;;;;5079971;28;20465;-80
2021/03/18 14:59:03;;;;;;;3.58;1.50;;;;;;;;;;5077873;28;20476;-81
2021/03/18 15:01:29;;;;;;;3.78;1.75;;;;;;;;;;5078840;28;20020;-80
2021/03/18 15:03:54;;;;;;;4.78;1.80;;;;;;;;;;5069376;28;20396;-80
2021/03/18 15:06:20;;;;;;;4.13;1.90;;;;;;;;;;5081797;28;20061;-79
2021/03/18 15:08:46;;;;;;;3.17;1.58;;;;;;;;;;5075697;28;20025;-81
2021/03/18 15:11:13;;;;;;;5.13;1.73;;;;;;;;;;5077769;28;20024;-81
2021/03/18 15:13:38;;;;;;;4.90;1.63;;;;;;;;;;5085741;28;20035;-77
2021/03/18 15:16:05;;;;;;;3.78;1.80;;;;;;;;;;5078704;28;20099;-77
2021/03/18 15:18:30;;;;;;;5.03;2.05;;;;;;;;;;5074302;28;20074;-77
2021/03/18 15:20:56;;;;;;;5.10;2.42;;;;;;;;;;5073683;28;20025;-77
2021/03/18 15:23:22;;;;;;;4.32;2.45;;;;;;;;;;5072118;28;20023;-77
2021/03/18 15:25:47;;;;;;;6.70;2.15;;;;;;;;;;5074287;28;20024;-77
2021/03/18 15:28:13;;;;;;;5.53;2.30;;;;;;;;;;5073761;28;20089;-78
2021/03/18 15:30:43;;;;;;;3.78;1.85;;;;;;;;;;5062932;28;20473;-77
2021/03/18 15:33:09;;;;;;;5.10;2.58;;;;;;;;;;5064358;28;20017;-78
2021/03/18 15:35:36;;;;;;;4.43;2.85;;;;;;;;;;5061277;28;20557;-78
2021/03/18 15:38:03;;;;;;;3.53;1.80;;;;;;;;;;5066798;28;20021;-79
2021/03/18 15:40:28;;;;;;;6.32;2.65;;;;;;;;;;5077631;28;20028;-78
2021/03/18 15:42:54;;;;;;;8.18;4.13;;;;;;;;;;5071561;28;20164;-81
2021/03/18 15:45:22;;;;;;;5.55;3.00;;;;;;;;;;5080442;28;20388;-80
2021/03/18 15:47:48;;;;;;;6.20;2.67;;;;;;;;;;5087610;28;20028;-80
2021/03/18 15:50:16;;;;;;;4.00;2.38;;;;;;;;;;5079330;28;20107;-80
2021/03/18 15:52:42;;;;;;;3.80;1.92;;;;;;;;;;5072367;28;20016;-80
2021/03/18 15:55:08;;;;;;;3.65;1.65;;;;;;;;;;5073832;28;20020;-80
2021/03/18 15:57:34;;;;;;;5.57;1.80;;;;;;;;;;5073381;28;20020;-79
2021/03/18 16:00:00;;;;;;;3.67;2.03;;;;;;;;;;5066012;28;20035;-83
2021/03/18 16:02:27;;;;;;;5.05;2.00;;;;;;;;;;5080009;28;20027;-79
2021/03/18 16:04:53;;;;;;;3.80;1.75;;;;;;;;;;5076646;28;20024;-81
2021/03/18 16:07:18;;;;;;;4.65;1.70;;;;;;;;;;5079709;28;20047;-82
2021/03/18 16:09:44;;;;;;;5.90;1.83;;;;;;;;;;5067900;28;20082;-82
2021/03/18 16:12:10;;;;;;;3.97;1.45;;;;;;;;;;5071189;28;20119;-81
2021/03/18 16:14:35;;;;;;;3.97;1.85;;;;;;;;;;5087276;28;20031;-81
2021/03/18 16:17:01;;;;;;;3.53;1.52;;;;;;;;;;5073504;28;19912;-81
2021/03/18 16:19:27;;;;;;;4.13;1.85;;;;;;;;;;5073524;28;20032;-81
2021/03/18 16:21:52;;;;;;;8.18;3.92;;;;;;;;;;5069399;28;20115;-81
2021/03/18 16:24:18;;;;;;;11.82;6.35;;;;;;;;;;5071730;28;20024;-81
2021/03/18 16:26:46;;;;;;;6.53;3.22;;;;;;;;;;5068128;28;20052;-82
2021/03/18 16:29:11;;;;;;;4.07;1.58;;;;;;;;;;5066642;28;20028;-80
2021/03/18 16:31:37;;;;;;;5.72;2.17;;;;;;;;;;5062966;28;20035;-82
2021/03/18 16:34:03;;;;;;;4.93;1.60;;;;;;;;;;5063620;28;20041;-82
2021/03/18 16:36:28;;;;;;;3.58;1.30;;;;;;;;;;5070717;28;20024;-82
2021/03/18 16:38:54;;;;;;;4.38;1.35;;;;;;;;;;5072852;28;20025;-81
2021/03/18 16:41:20;;;;;;;2.47;1.13;;;;;;;;;;5073644;28;20078;-81
2021/03/18 16:43:45;;;;;;;4.15;1.33;;;;;;;;;;5071512;28;20093;-79
2021/03/18 16:46:12;;;;;;;2.60;1.08;;;;;;;;;;5077670;28;20029;-81
2021/03/18 16:48:38;;;;;;;2.92;1.17;;;;;;;;;;5072926;28;20036;-79
2021/03/18 16:51:04;;;;;;;3.30;1.20;;;;;;;;;;5074352;28;20017;-80
2021/03/18 16:53:31;;;;;;;3.30;1.35;;;;;;;;;;5075721;28;20032;-81
2021/03/18 16:55:56;;;;;;;3.00;1.20;;;;;;;;;;5072253;28;20027;-79
2021/03/18 16:58:22;;;;;;;4.20;0.90;;;;;;;;;;5069955;28;20024;-79
2021/03/18 17:00:48;;;;;;;3.25;1.00;;;;;;;;;;5066211;28;20063;-81
2021/03/18 17:03:15;;;;;;;3.03;1.20;;;;;;;;;;5070590;28;20029;-79
2021/03/18 17:05:42;;;;;;;2.17;1.00;;;;;;;;;;5070316;28;20094;-81
2021/03/18 17:08:08;;;;;;;2.88;1.40;;;;;;;;;;5075578;28;20025;-81
2021/03/18 17:10:44;;;;;;;2.85;1.20;;;;;;;;;;5067192;28;20021;-80
2021/03/18 17:13:10;;;;;;;2.42;1.30;;;;;;;;;;5072955;28;20071;-78
2021/03/18 17:15:36;;;;;;;2.33;1.25;;;;;;;;;;5077878;28;20016;-77
2021/03/18 17:20:21;;;;;;;3.25;1.10;;;;;;;;;;5066631;28;20361;-79
2021/03/18 17:22:47;;;;;;;3.83;1.20;;;;;;;;;;5048985;28;20773;-79
2021/03/18 17:25:14;;;;;;;2.28;1.05;;;;;;;;;;5049560;28;20052;-79
2021/03/18 17:27:41;;;;;;;5.20;1.00;;;;;;;;;;5048197;28;20021;-79
2021/03/18 17:30:11;;;;;;;2.35;1.10;;;;;;;;;;5061546;28;20040;-79
2021/03/18 17:32:37;;;;;;;2.33;0.98;;;;;;;;;;5051689;28;20033;-81
2021/03/18 17:35:04;;;;;;;2.78;1.02;;;;;;;;;;5048802;28;20063;-79
2021/03/18 17:37:29;;;;;;;3.42;1.10;;;;;;;;;;5047112;28;20389;-79
2021/03/18 17:39:55;;;;;;;6.32;1.73;;;;;;;;;;5045513;28;20021;-79
2021/03/18 17:42:21;;;;;;;5.43;1.55;;;;;;;;;;5049320;28;20562;-78
2021/03/18 17:44:47;;;;;;;6.93;3.30;;;;;;;;;;5043845;28;20047;-78
2021/03/18 17:47:16;;;;;;;3.67;2.00;;;;;;;;;;5049056;28;20515;-78
2021/03/18 17:49:41;;;;;;;4.45;1.55;;;;;;;;;;5051234;28;20048;-78
2021/03/18 17:52:07;;;;;;;3.97;1.50;;;;;;;;;;5048724;28;20021;-79
2021/03/18 17:54:33;;;;;;;2.60;1.15;;;;;;;;;;5050396;28;20021;-78
2021/03/18 17:56:59;;;;;;;4.63;1.50;;;;;;;;;;5049793;28;20029;-78
2021/03/18 18:01:42;;;;;;;2.05;0.90;;;;;;;;;;5087547;28;20747;-78
2021/03/18 18:04:08;;;;;;;2.55;1.30;;;;;;;;;;5071598;28;20041;-78
2021/03/18 18:06:34;;;;;;;4.15;1.10;;;;;;;;;;5064689;28;20028;-79
2021/03/18 18:09:00;;;;;;;4.00;1.50;;;;;;;;;;5070802;28;20131;-78
2021/03/18 18:11:26;;;;;;;3.22;1.70;;;;;;;;;;5067626;28;20548;-78
2021/03/18 18:13:52;;;;;;;4.85;2.25;;;;;;;;;;5063580;28;20035;-78
2021/03/18 18:16:17;;;;;;;6.20;3.55;;;;;;;;;;5065795;28;20031;-78
2021/03/18 18:18:44;;;;;;;4.18;1.85;;;;;;;;;;5065971;28;20063;-78
2021/03/18 18:21:09;;;;;;;2.03;1.08;;;;;;;;;;5060242;28;20366;-78
2021/03/18 18:23:35;;;;;;;4.45;1.65;;;;;;;;;;5060632;28;20025;-78
2021/03/18 18:26:01;;;;;;;5.97;1.73;;;;;;;;;;5061706;28;20767;-78
2021/03/18 18:28:26;;;;;;;2.65;1.10;;;;;;;;;;5062442;28;20024;-78
2021/03/18 18:30:52;;;;;;;2.60;1.15;;;;;;;;;;5064624;28;20025;-78
2021/03/18 18:33:19;;;;;;;2.20;1.08;;;;;;;;;;5066159;28;20021;-78
2021/03/18 18:35:46;;;;;;;3.88;1.20;;;;;;;;;;5047123;28;20047;-78
2021/03/18 18:40:33;;;;;;;3.88;1.98;;;;;;;;;;5104637;27;20360;-78
2021/03/18 18:42:59;;;;;;;3.80;1.55;;;;;;;;;;5089335;28;20031;-78
2021/03/18 18:45:27;;;;;;;4.97;1.92;;;;;;;;;;5086874;28;20016;-78
2021/03/18 18:47:53;;;;;;;58.45;26.50;;;;;;;;;;5087858;28;20040;-78
2021/03/18 18:50:19;;;;;;;27.27;13.35;;;;;;;;;;5093886;28;20032;-80
2021/03/18 18:52:46;;;;;;;13.48;6.95;;;;;;;;;;5097020;28;20028;-80
2021/03/18 18:55:12;;;;;;;10.00;4.65;;;;;;;;;;5097333;28;20028;-81
2021/03/18 18:57:38;;;;;;;6.85;3.47;;;;;;;;;;5091790;28;20059;-80
2021/03/18 19:00:05;;;;;;;3.38;1.83;;;;;;;;;;5089030;28;20047;-81
2021/03/18 19:02:31;;;;;;;3.70;1.73;;;;;;;;;;5097917;28;20024;-80
2021/03/18 19:04:57;;;;;;;2.72;1.33;;;;;;;;;;5082652;28;20024;-81
2021/03/18 19:09:42;;;;;;;2.75;1.10;;;;;;;;;;5066436;28;20365;-81
2021/03/18 19:12:08;;;;;;;4.45;2.33;;;;;;;;;;5051638;28;20033;-80
2021/03/18 19:14:34;;;;;;;4.88;2.78;;;;;;;;;;5047246;28;20088;-81
2021/03/18 19:17:00;;;;;;;4.40;2.30;;;;;;;;;;5040239;28;20037;-80
2021/03/18 19:19:27;;;;;;;3.75;2.03;;;;;;;;;;5043806;28;20037;-78
2021/03/18 19:21:53;;;;;;;3.72;1.70;;;;;;;;;;5044023;28;20474;-78
2021/03/18 19:26:37;;;;;;;3.53;1.63;;;;;;;;;;5062329;28;20357;-79
2021/03/18 19:29:03;;;;;;;4.18;1.65;;;;;;;;;;5064032;28;20036;-77
2021/03/18 19:31:29;;;;;;;2.83;1.10;;;;;;;;;;5062798;28;20433;-80
2021/03/18 19:33:54;;;;;;;2.85;1.40;;;;;;;;;;5054106;28;20028;-80
2021/03/18 19:36:21;;;;;;;4.22;1.85;;;;;;;;;;5061085;28;20031;-81
2021/03/18 19:38:47;;;;;;;3.25;1.38;;;;;;;;;;5056113;28;20553;-81
2021/03/18 19:41:13;;;;;;;12.70;4.50;;;;;;;;;;5054253;28;20033;-81
2021/03/18 19:43:42;;;;;;;7.38;5.88;;;;;;;;;;5059916;28;20021;-80
2021/03/18 19:46:08;;;;;;;6.43;4.18;;;;;;;;;;5060871;28;20035;-80
2021/03/18 19:48:34;;;;;;;3.28;1.88;;;;;;;;;;5058387;28;20108;-81
2021/03/18 19:51:00;;;;;;;6.43;1.85;;;;;;;;;;5056918;28;20037;-81
2021/03/18 19:53:26;;;;;;;5.35;2.20;;;;;;;;;;5061500;28;20024;-80
2021/03/18 19:55:52;;;;;;;4.18;2.30;;;;;;;;;;5058100;28;20131;-81
2021/03/18 19:58:18;;;;;;;5.28;3.00;;;;;;;;;;5062879;28;20054;-81
2021/03/18 20:03:03;;;;;;;13.10;4.13;;;;;;;;;;5090125;27;20361;-80
2021/03/18 20:05:29;;;;;;;6.30;3.35;;;;;;;;;;5081117;28;20028;-81
2021/03/18 20:07:56;;;;;;;5.50;1.92;;;;;;;;;;5080598;28;20039;-80
2021/03/18 20:10:23;;;;;;;4.63;1.90;;;;;;;;;;5082002;28;20472;-80
2021/03/18 20:12:48;;;;;;;3.78;1.80;;;;;;;;;;5089493;28;20023;-80
2021/03/18 20:15:16;;;;;;;5.93;2.05;;;;;;;;;;5098568;28;20472;-80
2021/03/18 20:17:42;;;;;;;4.32;1.80;;;;;;;;;;5083878;28;20032;-80
2021/03/18 20:20:09;;;;;;;3.95;1.42;;;;;;;;;;5084144;28;20035;-80
2021/03/18 20:22:35;;;;;;;3.58;1.48;;;;;;;;;;5084108;28;20063;-80
2021/03/18 20:25:00;;;;;;;4.40;1.95;;;;;;;;;;5087020;28;20383;-80
2021/03/18 20:27:26;;;;;;;2.83;1.27;;;;;;;;;;5094327;28;20032;-81
2021/03/18 20:29:52;;;;;;;4.72;1.58;;;;;;;;;;5088623;28;20030;-80
2021/03/18 20:32:17;;;;;;;7.80;1.55;;;;;;;;;;5083143;28;20034;-80
2021/03/18 20:34:43;;;;;;;3.33;1.58;;;;;;;;;;5085693;28;20086;-80
2021/03/18 20:37:09;;;;;;;3.33;1.35;;;;;;;;;;5093507;28;20068;-80
2021/03/18 20:39:35;;;;;;;6.35;1.75;;;;;;;;;;5087977;28;20123;-80
2021/03/18 20:42:01;;;;;;;2.95;1.58;;;;;;;;;;5086414;28;20016;-80
2021/03/18 20:44:27;;;;;;;3.45;1.92;;;;;;;;;;5084453;28;20027;-80
2021/03/18 20:46:53;;;;;;;3.70;1.60;;;;;;;;;;5089294;28;20016;-81
2021/03/18 20:49:18;;;;;;;5.03;1.90;;;;;;;;;;5089113;28;20012;-80
2021/03/18 20:51:44;;;;;;;4.47;2.22;;;;;;;;;;5087479;28;20032;-79